sensor_id;sensor_type;location;lat;lon;timestamp;temperature;humidity
15013;DHT22;7603;49.432;11.418;2023-02-23T00:01:48;7.30;99.90
15013;DHT22;7603;49.432;11.418;2023-02-23T00:04:14;7.30;99.90
15013;DHT22;7603;49.432;11.418;2023-02-23T00:06:40;7.30;99.90
15013;DHT22;7603;49.432;11.418;2023-02-23T00:09:06;7.30;99.90
15013;DHT22;7603;49.432;11.418;2023-02-23T00:11:38;7.20;99.90
15013;DHT22;7603;49.432;11.418;2023-02-23T00:14:04;7.20;99.90
15013;DHT22;7603;49.432;11.418;2023-02-23T00:16:30;7.20;99.90
15013;DHT22;7603;49.432;11.418;2023-02-23T00:18:56;7.10;99.90
15013;DHT22;7603;49.432;11.418;2023-02-23T00:21:29;7.10;99.90
15013;DHT22;7603;49.432;11.418;2023-02-23T00:23:59;7.10;99.90
15013;DHT22;7603;49.432;11.418;2023-02-23T00:26:27;7.00;99.90
15013;DHT22;7603;49.432;11.418;2023-02-23T00:28:56;7.00;99.90
15013;DHT22;7603;49.432;11.418;2023-02-23T00:31:23;7.00;99.90
15013;DHT22;7603;49.432;11.418;2023-02-23T00:33:57;7.00;99.90
15013;DHT22;7603;49.432;11.418;2023-02-23T00:36:26;6.90;99.90
15013;DHT22;7603;49.432;11.418;2023-02-23T00:38:54;6.90;99.90
15013;DHT22;7603;49.432;11.418;2023-02-23T00:41:20;6.90;99.90
15013;DHT22;7603;49.432;11.418;2023-02-23T00:43:59;6.90;99.90
15013;DHT22;7603;49.432;11.418;2023-02-23T00:46:27;6.90;99.90
15013;DHT22;7603;49.432;11.418;2023-02-23T00:48:54;6.80;99.90
15013;DHT22;7603;49.432;11.418;2023-02-23T00:51:21;6.80;99.90
15013;DHT22;7603;49.432;11.418;2023-02-23T00:53:47;6.80;99.90
15013;DHT22;7603;49.432;11.418;2023-02-23T00:56:15;6.80;99.90
15013;DHT22;7603;49.432;11.418;2023-02-23T00:58:41;6.80;99.90
15013;DHT22;7603;49.432;11.418;2023-02-23T01:01:08;6.80;99.90
15013;DHT22;7603;49.432;11.418;2023-02-23T01:03:35;6.80;99.90
15013;DHT22;7603;49.432;11.418;2023-02-23T01:06:02;6.80;99.90
15013;DHT22;7603;49.432;11.418;2023-02-23T01:08:31;6.80;99.90
15013;DHT22;7603;49.432;11.418;2023-02-23T01:10:57;6.80;99.90
15013;DHT22;7603;49.432;11.418;2023-02-23T01:13:24;6.80;99.90
15013;DHT22;7603;49.432;11.418;2023-02-23T01:15:52;6.80;99.90
15013;DHT22;7603;49.432;11.418;2023-02-23T01:18:18;6.80;99.90
15013;DHT22;7603;49.432;11.418;2023-02-23T01:20:45;6.80;99.90
15013;DHT22;7603;49.432;11.418;2023-02-23T01:23:12;6.80;99.90
15013;DHT22;7603;49.432;11.418;2023-02-23T01:25:40;6.80;99.90
15013;DHT22;7603;49.432;11.418;2023-02-23T01:28:07;6.80;99.90
15013;DHT22;7603;49.432;11.418;2023-02-23T01:30:33;6.80;99.90
15013;DHT22;7603;49.432;11.418;2023-02-23T01:32:59;6.80;99.90
15013;DHT22;7603;49.432;11.418;2023-02-23T01:35:27;6.80;99.90
15013;DHT22;7603;49.432;11.418;2023-02-23T01:37:53;6.80;99.90
15013;DHT22;7603;49.432;11.418;2023-02-23T01:40:21;6.80;99.90
15013;DHT22;7603;49.432;11.418;2023-02-23T01:43:13;6.80;99.90
15013;DHT22;7603;49.432;11.418;2023-02-23T01:45:41;6.80;99.90
15013;DHT22;7603;49.432;11.418;2023-02-23T01:48:28;6.80;99.90
15013;DHT22;7603;49.432;11.418;2023-02-23T01:51:10;6.90;99.90
15013;DHT22;7603;49.432;11.418;2023-02-23T01:53:40;6.90;99.90
15013;DHT22;7603;49.432;11.418;2023-02-23T01:56:14;6.90;99.90
15013;DHT22;7603;49.432;11.418;2023-02-23T01:58:45;6.90;99.90
15013;DHT22;7603;49.432;11.418;2023-02-23T02:01:12;6.90;99.90
15013;DHT22;7603;49.432;11.418;2023-02-23T02:03:38;6.90;99.90
15013;DHT22;7603;49.432;11.418;2023-02-23T02:06:07;6.80;99.90
15013;DHT22;7603;49.432;11.418;2023-02-23T02:08:35;6.90;99.90
15013;DHT22;7603;49.432;11.418;2023-02-23T02:11:11;6.80;99.90
15013;DHT22;7603;49.432;11.418;2023-02-23T02:13:52;6.80;99.90
15013;DHT22;7603;49.432;11.418;2023-02-23T02:18:56;6.80;99.90
15013;DHT22;7603;49.432;11.418;2023-02-23T02:24:40;6.80;99.90
15013;DHT22;7603;49.432;11.418;2023-02-23T02:27:37;6.80;99.90
15013;DHT22;7603;49.432;11.418;2023-02-23T02:38:15;6.70;99.90
15013;DHT22;7603;49.432;11.418;2023-02-23T02:41:38;6.70;99.90
15013;DHT22;7603;49.432;11.418;2023-02-23T02:46:36;6.60;99.90
15013;DHT22;7603;49.432;11.418;2023-02-23T02:49:25;6.50;99.90
15013;DHT22;7603;49.432;11.418;2023-02-23T02:54:52;6.40;99.90
15013;DHT22;7603;49.432;11.418;2023-02-23T02:57:24;6.40;99.90
15013;DHT22;7603;49.432;11.418;2023-02-23T02:59:50;6.40;99.90
15013;DHT22;7603;49.432;11.418;2023-02-23T03:02:37;6.30;99.90
15013;DHT22;7603;49.432;11.418;2023-02-23T03:05:24;6.20;99.90
15013;DHT22;7603;49.432;11.418;2023-02-23T03:08:18;6.10;99.90
15013;DHT22;7603;49.432;11.418;2023-02-23T03:11:09;6.10;99.90
15013;DHT22;7603;49.432;11.418;2023-02-23T03:20:12;6.00;99.90
15013;DHT22;7603;49.432;11.418;2023-02-23T03:23:28;6.00;99.90
15013;DHT22;7603;49.432;11.418;2023-02-23T03:26:30;5.90;99.90
15013;DHT22;7603;49.432;11.418;2023-02-23T03:29:37;6.00;99.90
15013;DHT22;7603;49.432;11.418;2023-02-23T03:32:33;6.00;99.90
15013;DHT22;7603;49.432;11.418;2023-02-23T03:35:24;5.90;99.90
15013;DHT22;7603;49.432;11.418;2023-02-23T03:38:17;5.90;99.90
15013;DHT22;7603;49.432;11.418;2023-02-23T03:41:06;6.00;99.90
15013;DHT22;7603;49.432;11.418;2023-02-23T03:43:57;5.90;99.90
15013;DHT22;7603;49.432;11.418;2023-02-23T03:46:43;5.90;99.90
15013;DHT22;7603;49.432;11.418;2023-02-23T03:49:35;6.00;99.90
15013;DHT22;7603;49.432;11.418;2023-02-23T03:52:35;5.90;99.90
15013;DHT22;7603;49.432;11.418;2023-02-23T03:55:24;5.90;99.90
15013;DHT22;7603;49.432;11.418;2023-02-23T03:58:13;5.90;99.90
15013;DHT22;7603;49.432;11.418;2023-02-23T04:01:02;5.90;99.90
15013;DHT22;7603;49.432;11.418;2023-02-23T04:03:49;5.90;99.90
15013;DHT22;7603;49.432;11.418;2023-02-23T04:06:41;5.90;99.90
15013;DHT22;7603;49.432;11.418;2023-02-23T04:09:26;5.90;99.90
15013;DHT22;7603;49.432;11.418;2023-02-23T04:15:13;5.80;99.90
15013;DHT22;7603;49.432;11.418;2023-02-23T04:17:40;5.80;99.90
15013;DHT22;7603;49.432;11.418;2023-02-23T04:20:08;5.70;99.90
15013;DHT22;7603;49.432;11.418;2023-02-23T04:22:35;5.70;99.90
15013;DHT22;7603;49.432;11.418;2023-02-23T04:25:00;5.70;99.90
15013;DHT22;7603;49.432;11.418;2023-02-23T04:27:26;5.70;99.90
15013;DHT22;7603;49.432;11.418;2023-02-23T04:29:52;5.70;99.90
15013;DHT22;7603;49.432;11.418;2023-02-23T04:32:18;5.60;99.90
15013;DHT22;7603;49.432;11.418;2023-02-23T04:34:45;5.60;99.90
15013;DHT22;7603;49.432;11.418;2023-02-23T04:37:11;5.60;99.90
15013;DHT22;7603;49.432;11.418;2023-02-23T04:39:37;5.60;99.90
15013;DHT22;7603;49.432;11.418;2023-02-23T04:42:03;5.60;99.90
15013;DHT22;7603;49.432;11.418;2023-02-23T04:44:29;5.60;99.90
15013;DHT22;7603;49.432;11.418;2023-02-23T04:46:56;5.60;99.90
15013;DHT22;7603;49.432;11.418;2023-02-23T04:49:22;5.70;99.90
15013;DHT22;7603;49.432;11.418;2023-02-23T04:51:48;5.70;99.90
15013;DHT22;7603;49.432;11.418;2023-02-23T04:54:13;5.70;99.90
15013;DHT22;7603;49.432;11.418;2023-02-23T04:56:39;5.70;99.90
15013;DHT22;7603;49.432;11.418;2023-02-23T04:59:04;5.60;99.90
15013;DHT22;7603;49.432;11.418;2023-02-23T05:01:30;5.60;99.90
15013;DHT22;7603;49.432;11.418;2023-02-23T05:03:57;5.60;99.90
15013;DHT22;7603;49.432;11.418;2023-02-23T05:06:23;5.50;99.90
15013;DHT22;7603;49.432;11.418;2023-02-23T05:08:49;5.50;99.90
15013;DHT22;7603;49.432;11.418;2023-02-23T05:11:14;5.50;99.90
15013;DHT22;7603;49.432;11.418;2023-02-23T05:13:40;5.50;99.90
15013;DHT22;7603;49.432;11.418;2023-02-23T05:16:06;5.50;99.90
15013;DHT22;7603;49.432;11.418;2023-02-23T05:18:32;5.50;99.90
15013;DHT22;7603;49.432;11.418;2023-02-23T05:21:06;5.50;99.90
15013;DHT22;7603;49.432;11.418;2023-02-23T05:23:35;5.50;99.90
15013;DHT22;7603;49.432;11.418;2023-02-23T05:26:06;5.60;99.90
15013;DHT22;7603;49.432;11.418;2023-02-23T05:28:33;5.70;99.90
15013;DHT22;7603;49.432;11.418;2023-02-23T05:30:59;5.80;99.90
15013;DHT22;7603;49.432;11.418;2023-02-23T05:33:25;5.80;99.90
15013;DHT22;7603;49.432;11.418;2023-02-23T05:35:51;5.90;99.90
15013;DHT22;7603;49.432;11.418;2023-02-23T05:38:16;5.90;99.90
15013;DHT22;7603;49.432;11.418;2023-02-23T05:40:42;5.90;99.90
15013;DHT22;7603;49.432;11.418;2023-02-23T05:43:08;5.90;99.90
15013;DHT22;7603;49.432;11.418;2023-02-23T05:45:41;5.80;99.90
15013;DHT22;7603;49.432;11.418;2023-02-23T05:48:08;5.80;99.90
15013;DHT22;7603;49.432;11.418;2023-02-23T05:50:34;5.80;99.90
15013;DHT22;7603;49.432;11.418;2023-02-23T05:53:00;5.70;99.90
15013;DHT22;7603;49.432;11.418;2023-02-23T05:55:26;5.70;99.90
15013;DHT22;7603;49.432;11.418;2023-02-23T05:57:52;5.60;99.90
15013;DHT22;7603;49.432;11.418;2023-02-23T06:00:18;5.60;99.90
15013;DHT22;7603;49.432;11.418;2023-02-23T06:02:44;5.60;99.90
15013;DHT22;7603;49.432;11.418;2023-02-23T06:05:11;5.60;99.90
15013;DHT22;7603;49.432;11.418;2023-02-23T06:07:37;5.60;99.90
15013;DHT22;7603;49.432;11.418;2023-02-23T06:10:03;5.60;99.90
15013;DHT22;7603;49.432;11.418;2023-02-23T06:12:29;5.50;99.90
15013;DHT22;7603;49.432;11.418;2023-02-23T06:14:54;5.50;99.90
15013;DHT22;7603;49.432;11.418;2023-02-23T06:17:21;5.50;99.90
15013;DHT22;7603;49.432;11.418;2023-02-23T06:19:47;5.50;99.90
15013;DHT22;7603;49.432;11.418;2023-02-23T06:22:13;5.50;99.90
15013;DHT22;7603;49.432;11.418;2023-02-23T06:24:39;5.50;99.90
15013;DHT22;7603;49.432;11.418;2023-02-23T06:27:05;5.50;99.90
15013;DHT22;7603;49.432;11.418;2023-02-23T06:29:31;5.60;99.90
15013;DHT22;7603;49.432;11.418;2023-02-23T06:31:57;5.60;99.90
15013;DHT22;7603;49.432;11.418;2023-02-23T06:34:24;5.70;99.90
15013;DHT22;7603;49.432;11.418;2023-02-23T06:36:50;5.70;99.90
15013;DHT22;7603;49.432;11.418;2023-02-23T06:39:15;5.80;99.90
15013;DHT22;7603;49.432;11.418;2023-02-23T06:41:41;5.80;99.90
15013;DHT22;7603;49.432;11.418;2023-02-23T06:44:07;5.90;99.90
15013;DHT22;7603;49.432;11.418;2023-02-23T06:46:32;5.90;99.90
15013;DHT22;7603;49.432;11.418;2023-02-23T06:48:59;6.00;99.90
15013;DHT22;7603;49.432;11.418;2023-02-23T06:51:24;6.10;99.90
15013;DHT22;7603;49.432;11.418;2023-02-23T06:53:51;6.10;99.90
15013;DHT22;7603;49.432;11.418;2023-02-23T06:56:19;6.20;99.90
15013;DHT22;7603;49.432;11.418;2023-02-23T06:58:45;6.30;99.90
15013;DHT22;7603;49.432;11.418;2023-02-23T07:01:11;6.40;99.90
15013;DHT22;7603;49.432;11.418;2023-02-23T07:03:37;6.40;99.90
15013;DHT22;7603;49.432;11.418;2023-02-23T07:06:03;6.50;99.90
15013;DHT22;7603;49.432;11.418;2023-02-23T07:08:33;6.60;99.90
15013;DHT22;7603;49.432;11.418;2023-02-23T07:13:31;6.80;99.90
15013;DHT22;7603;49.432;11.418;2023-02-23T07:15:57;6.90;99.90
15013;DHT22;7603;49.432;11.418;2023-02-23T07:18:22;6.90;99.90
15013;DHT22;7603;49.432;11.418;2023-02-23T07:20:49;7.00;99.90
15013;DHT22;7603;49.432;11.418;2023-02-23T07:23:16;7.10;99.90
15013;DHT22;7603;49.432;11.418;2023-02-23T07:25:42;7.10;99.90
15013;DHT22;7603;49.432;11.418;2023-02-23T07:28:07;7.20;99.90
15013;DHT22;7603;49.432;11.418;2023-02-23T07:30:33;7.30;99.90
15013;DHT22;7603;49.432;11.418;2023-02-23T07:32:58;7.40;99.90
15013;DHT22;7603;49.432;11.418;2023-02-23T07:35:24;7.50;99.90
15013;DHT22;7603;49.432;11.418;2023-02-23T07:37:50;7.60;99.90
15013;DHT22;7603;49.432;11.418;2023-02-23T07:40:16;7.60;99.90
15013;DHT22;7603;49.432;11.418;2023-02-23T07:42:44;7.80;99.90
15013;DHT22;7603;49.432;11.418;2023-02-23T07:45:10;7.90;99.90
15013;DHT22;7603;49.432;11.418;2023-02-23T07:47:35;8.00;99.90
15013;DHT22;7603;49.432;11.418;2023-02-23T07:50:02;8.10;99.90
15013;DHT22;7603;49.432;11.418;2023-02-23T07:52:30;8.20;99.90
15013;DHT22;7603;49.432;11.418;2023-02-23T07:54:55;8.30;99.90
15013;DHT22;7603;49.432;11.418;2023-02-23T07:57:21;8.40;99.90
15013;DHT22;7603;49.432;11.418;2023-02-23T07:59:48;8.60;99.90
15013;DHT22;7603;49.432;11.418;2023-02-23T08:02:14;8.80;99.90
15013;DHT22;7603;49.432;11.418;2023-02-23T08:04:41;8.90;99.90
15013;DHT22;7603;49.432;11.418;2023-02-23T08:07:08;9.10;99.90
15013;DHT22;7603;49.432;11.418;2023-02-23T08:09:33;9.20;99.90
15013;DHT22;7603;49.432;11.418;2023-02-23T08:12:00;9.30;99.90
15013;DHT22;7603;49.432;11.418;2023-02-23T08:14:26;9.50;99.90
15013;DHT22;7603;49.432;11.418;2023-02-23T08:16:51;9.70;99.90
15013;DHT22;7603;49.432;11.418;2023-02-23T08:19:17;9.80;99.90
15013;DHT22;7603;49.432;11.418;2023-02-23T08:21:47;9.90;99.90
15013;DHT22;7603;49.432;11.418;2023-02-23T08:24:14;10.10;99.90
15013;DHT22;7603;49.432;11.418;2023-02-23T08:26:40;10.20;99.90
15013;DHT22;7603;49.432;11.418;2023-02-23T08:29:05;10.30;99.90
15013;DHT22;7603;49.432;11.418;2023-02-23T08:31:31;10.50;99.90
15013;DHT22;7603;49.432;11.418;2023-02-23T08:33:57;10.60;99.90
15013;DHT22;7603;49.432;11.418;2023-02-23T08:36:23;10.70;99.90
15013;DHT22;7603;49.432;11.418;2023-02-23T08:38:49;10.80;99.90
15013;DHT22;7603;49.432;11.418;2023-02-23T08:41:15;11.00;99.90
15013;DHT22;7603;49.432;11.418;2023-02-23T08:43:41;11.20;99.90
15013;DHT22;7603;49.432;11.418;2023-02-23T08:46:06;11.50;99.90
15013;DHT22;7603;49.432;11.418;2023-02-23T08:48:32;11.70;99.90
15013;DHT22;7603;49.432;11.418;2023-02-23T08:50:59;11.90;99.90
15013;DHT22;7603;49.432;11.418;2023-02-23T08:53:25;12.10;99.90
15013;DHT22;7603;49.432;11.418;2023-02-23T08:55:57;12.30;99.90
15013;DHT22;7603;49.432;11.418;2023-02-23T08:58:24;12.40;99.90
15013;DHT22;7603;49.432;11.418;2023-02-23T09:00:50;12.60;99.90
15013;DHT22;7603;49.432;11.418;2023-02-23T09:03:15;12.60;99.90
15013;DHT22;7603;49.432;11.418;2023-02-23T09:05:41;12.50;99.90
15013;DHT22;7603;49.432;11.418;2023-02-23T09:08:08;12.40;99.90
15013;DHT22;7603;49.432;11.418;2023-02-23T09:10:34;12.30;99.90
15013;DHT22;7603;49.432;11.418;2023-02-23T09:13:00;12.30;99.90
15013;DHT22;7603;49.432;11.418;2023-02-23T09:15:25;12.20;99.90
15013;DHT22;7603;49.432;11.418;2023-02-23T09:17:51;12.20;99.90
15013;DHT22;7603;49.432;11.418;2023-02-23T09:20:17;12.20;99.90
15013;DHT22;7603;49.432;11.418;2023-02-23T09:22:43;12.20;99.90
15013;DHT22;7603;49.432;11.418;2023-02-23T09:25:16;12.20;99.90
15013;DHT22;7603;49.432;11.418;2023-02-23T09:27:44;12.20;99.90
15013;DHT22;7603;49.432;11.418;2023-02-23T09:30:11;12.10;99.90
15013;DHT22;7603;49.432;11.418;2023-02-23T09:32:46;12.10;99.90
15013;DHT22;7603;49.432;11.418;2023-02-23T09:35:12;12.10;99.90
15013;DHT22;7603;49.432;11.418;2023-02-23T09:37:43;12.20;99.90
15013;DHT22;7603;49.432;11.418;2023-02-23T09:40:36;12.30;99.90
15013;DHT22;7603;49.432;11.418;2023-02-23T09:43:19;12.40;99.90
15013;DHT22;7603;49.432;11.418;2023-02-23T09:45:54;12.60;99.90
15013;DHT22;7603;49.432;11.418;2023-02-23T09:48:26;12.90;99.90
15013;DHT22;7603;49.432;11.418;2023-02-23T09:50:55;13.00;99.90
15013;DHT22;7603;49.432;11.418;2023-02-23T09:55:58;13.00;99.90
15013;DHT22;7603;49.432;11.418;2023-02-23T09:58:30;12.90;99.90
15013;DHT22;7603;49.432;11.418;2023-02-23T10:03:51;12.40;99.90
15013;DHT22;7603;49.432;11.418;2023-02-23T10:06:18;12.30;99.90
15013;DHT22;7603;49.432;11.418;2023-02-23T10:11:32;12.20;99.90
15013;DHT22;7603;49.432;11.418;2023-02-23T10:16:51;12.20;99.90
15013;DHT22;7603;49.432;11.418;2023-02-23T10:22:08;12.20;99.90
15013;DHT22;7603;49.432;11.418;2023-02-23T10:24:39;12.30;99.90
15013;DHT22;7603;49.432;11.418;2023-02-23T10:27:16;12.40;99.90
15013;DHT22;7603;49.432;11.418;2023-02-23T10:29:50;12.40;99.90
15013;DHT22;7603;49.432;11.418;2023-02-23T10:32:23;12.30;99.90
15013;DHT22;7603;49.432;11.418;2023-02-23T10:34:52;12.10;99.90
15013;DHT22;7603;49.432;11.418;2023-02-23T10:37:19;11.80;99.90
15013;DHT22;7603;49.432;11.418;2023-02-23T10:39:44;11.60;99.90
15013;DHT22;7603;49.432;11.418;2023-02-23T10:42:19;11.40;99.90
15013;DHT22;7603;49.432;11.418;2023-02-23T10:44:46;11.20;99.90
15013;DHT22;7603;49.432;11.418;2023-02-23T10:47:18;11.00;99.90
15013;DHT22;7603;49.432;11.418;2023-02-23T10:49:49;10.90;99.90
15013;DHT22;7603;49.432;11.418;2023-02-23T10:55:04;10.70;99.90
15013;DHT22;7603;49.432;11.418;2023-02-23T10:57:33;10.70;99.90
15013;DHT22;7603;49.432;11.418;2023-02-23T11:00:07;10.60;99.90
15013;DHT22;7603;49.432;11.418;2023-02-23T11:02:33;10.60;99.90
15013;DHT22;7603;49.432;11.418;2023-02-23T11:05:04;10.60;99.90
15013;DHT22;7603;49.432;11.418;2023-02-23T11:07:31;10.60;99.90
15013;DHT22;7603;49.432;11.418;2023-02-23T11:09:58;10.60;99.90
15013;DHT22;7603;49.432;11.418;2023-02-23T11:12:38;10.60;99.90
15013;DHT22;7603;49.432;11.418;2023-02-23T11:18:03;10.70;99.90
15013;DHT22;7603;49.432;11.418;2023-02-23T11:20:30;10.70;99.90
15013;DHT22;7603;49.432;11.418;2023-02-23T11:22:57;10.70;99.90
15013;DHT22;7603;49.432;11.418;2023-02-23T11:25:30;10.70;99.90
15013;DHT22;7603;49.432;11.418;2023-02-23T11:27:57;10.80;99.90
15013;DHT22;7603;49.432;11.418;2023-02-23T11:30:29;10.80;99.90
15013;DHT22;7603;49.432;11.418;2023-02-23T11:32:58;10.80;99.90
15013;DHT22;7603;49.432;11.418;2023-02-23T11:35:34;10.90;99.90
15013;DHT22;7603;49.432;11.418;2023-02-23T11:40:58;11.20;99.90
15013;DHT22;7603;49.432;11.418;2023-02-23T11:43:24;11.50;99.90
15013;DHT22;7603;49.432;11.418;2023-02-23T11:45:56;11.70;99.90
15013;DHT22;7603;49.432;11.418;2023-02-23T11:48:33;12.00;99.90
15013;DHT22;7603;49.432;11.418;2023-02-23T11:51:00;12.20;99.90
15013;DHT22;7603;49.432;11.418;2023-02-23T11:53:39;12.40;99.90
15013;DHT22;7603;49.432;11.418;2023-02-23T11:56:09;12.50;99.90
15013;DHT22;7603;49.432;11.418;2023-02-23T11:58:46;12.50;99.90
15013;DHT22;7603;49.432;11.418;2023-02-23T12:01:15;12.60;99.90
15013;DHT22;7603;49.432;11.418;2023-02-23T12:03:56;12.60;99.90
15013;DHT22;7603;49.432;11.418;2023-02-23T12:11:45;13.00;99.90
15013;DHT22;7603;49.432;11.418;2023-02-23T12:14:27;13.20;99.90
15013;DHT22;7603;49.432;11.418;2023-02-23T12:17:08;13.40;99.90
15013;DHT22;7603;49.432;11.418;2023-02-23T12:19:44;13.60;99.90
15013;DHT22;7603;49.432;11.418;2023-02-23T12:22:17;13.60;99.90
15013;DHT22;7603;49.432;11.418;2023-02-23T12:25:01;13.70;99.90
15013;DHT22;7603;49.432;11.418;2023-02-23T12:30:19;13.80;99.90
15013;DHT22;7603;49.432;11.418;2023-02-23T12:32:52;13.80;99.90
15013;DHT22;7603;49.432;11.418;2023-02-23T12:35:24;13.70;99.90
15013;DHT22;7603;49.432;11.418;2023-02-23T12:38:03;13.70;99.90
15013;DHT22;7603;49.432;11.418;2023-02-23T12:40:35;13.60;99.90
15013;DHT22;7603;49.432;11.418;2023-02-23T12:45:58;13.50;99.90
15013;DHT22;7603;49.432;11.418;2023-02-23T12:51:32;13.40;99.90
15013;DHT22;7603;49.432;11.418;2023-02-23T12:54:00;13.40;99.90
15013;DHT22;7603;49.432;11.418;2023-02-23T12:56:53;13.40;99.90
15013;DHT22;7603;49.432;11.418;2023-02-23T12:59:52;13.50;99.90
15013;DHT22;7603;49.432;11.418;2023-02-23T13:02:25;13.60;99.90
15013;DHT22;7603;49.432;11.418;2023-02-23T13:05:05;13.50;99.90
15013;DHT22;7603;49.432;11.418;2023-02-23T13:15:55;13.30;99.90
15013;DHT22;7603;49.432;11.418;2023-02-23T13:18:26;13.20;99.90
15013;DHT22;7603;49.432;11.418;2023-02-23T13:21:16;13.10;99.90
15013;DHT22;7603;49.432;11.418;2023-02-23T13:24:26;13.00;99.90
15013;DHT22;7603;49.432;11.418;2023-02-23T13:26:58;12.90;99.90
15013;DHT22;7603;49.432;11.418;2023-02-23T13:29:30;12.80;99.90
15013;DHT22;7603;49.432;11.418;2023-02-23T13:32:00;12.80;99.90
15013;DHT22;7603;49.432;11.418;2023-02-23T13:34:35;12.80;99.90
15013;DHT22;7603;49.432;11.418;2023-02-23T13:37:05;12.80;99.90
15013;DHT22;7603;49.432;11.418;2023-02-23T13:53:14;12.20;99.90
15013;DHT22;7603;49.432;11.418;2023-02-23T13:55:51;12.10;99.90
15013;DHT22;7603;49.432;11.418;2023-02-23T13:58:26;12.10;99.90
15013;DHT22;7603;49.432;11.418;2023-02-23T14:01:01;12.20;99.90
15013;DHT22;7603;49.432;11.418;2023-02-23T14:03:29;12.40;99.90
15013;DHT22;7603;49.432;11.418;2023-02-23T14:05:59;12.70;99.90
15013;DHT22;7603;49.432;11.418;2023-02-23T14:08:32;13.00;99.90
15013;DHT22;7603;49.432;11.418;2023-02-23T14:10:59;13.40;99.90
15013;DHT22;7603;49.432;11.418;2023-02-23T14:13:34;13.80;99.90
15013;DHT22;7603;49.432;11.418;2023-02-23T14:16:15;14.10;99.90
15013;DHT22;7603;49.432;11.418;2023-02-23T14:19:05;14.20;99.90
15013;DHT22;7603;49.432;11.418;2023-02-23T14:21:55;14.30;99.90
15013;DHT22;7603;49.432;11.418;2023-02-23T14:24:25;14.20;99.90
15013;DHT22;7603;49.432;11.418;2023-02-23T14:34:53;13.30;99.90
15013;DHT22;7603;49.432;11.418;2023-02-23T14:37:33;13.10;99.90
15013;DHT22;7603;49.432;11.418;2023-02-23T14:40:12;13.00;99.90
15013;DHT22;7603;49.432;11.418;2023-02-23T14:42:39;12.90;99.90
15013;DHT22;7603;49.432;11.418;2023-02-23T14:45:26;12.90;99.90
15013;DHT22;7603;49.432;11.418;2023-02-23T14:47:56;12.90;99.90
15013;DHT22;7603;49.432;11.418;2023-02-23T14:50:29;12.80;99.90
15013;DHT22;7603;49.432;11.418;2023-02-23T14:52:56;12.70;99.90
15013;DHT22;7603;49.432;11.418;2023-02-23T14:55:28;12.70;99.90
15013;DHT22;7603;49.432;11.418;2023-02-23T14:57:54;12.80;99.90
15013;DHT22;7603;49.432;11.418;2023-02-23T15:00:23;12.80;99.90
15013;DHT22;7603;49.432;11.418;2023-02-23T15:02:58;12.90;99.90
15013;DHT22;7603;49.432;11.418;2023-02-23T15:05:29;13.00;99.90
15013;DHT22;7603;49.432;11.418;2023-02-23T15:08:02;13.00;99.90
15013;DHT22;7603;49.432;11.418;2023-02-23T15:10:34;13.10;99.90
15013;DHT22;7603;49.432;11.418;2023-02-23T15:13:06;13.10;99.90
15013;DHT22;7603;49.432;11.418;2023-02-23T15:15:33;13.10;99.90
15013;DHT22;7603;49.432;11.418;2023-02-23T15:18:01;13.20;99.90
15013;DHT22;7603;49.432;11.418;2023-02-23T15:20:32;13.20;99.90
15013;DHT22;7603;49.432;11.418;2023-02-23T15:23:01;13.20;99.90
15013;DHT22;7603;49.432;11.418;2023-02-23T15:25:38;13.10;99.90
15013;DHT22;7603;49.432;11.418;2023-02-23T15:28:23;13.00;99.90
15013;DHT22;7603;49.432;11.418;2023-02-23T15:30:51;12.90;99.90
15013;DHT22;7603;49.432;11.418;2023-02-23T15:33:18;12.90;99.90
15013;DHT22;7603;49.432;11.418;2023-02-23T15:35:53;12.90;99.90
15013;DHT22;7603;49.432;11.418;2023-02-23T15:38:25;12.80;99.90
15013;DHT22;7603;49.432;11.418;2023-02-23T15:40:57;12.70;99.90
15013;DHT22;7603;49.432;11.418;2023-02-23T15:43:23;12.60;99.90
15013;DHT22;7603;49.432;11.418;2023-02-23T15:45:51;12.60;99.90
15013;DHT22;7603;49.432;11.418;2023-02-23T15:48:26;12.40;99.90
15013;DHT22;7603;49.432;11.418;2023-02-23T15:50:55;12.40;99.90
15013;DHT22;7603;49.432;11.418;2023-02-23T15:53:37;12.30;99.90
15013;DHT22;7603;49.432;11.418;2023-02-23T15:56:26;12.20;99.90
15013;DHT22;7603;49.432;11.418;2023-02-23T15:58:56;12.10;99.90
15013;DHT22;7603;49.432;11.418;2023-02-23T16:01:27;12.00;99.90
15013;DHT22;7603;49.432;11.418;2023-02-23T16:03:58;11.90;99.90
15013;DHT22;7603;49.432;11.418;2023-02-23T16:06:29;11.80;99.90
15013;DHT22;7603;49.432;11.418;2023-02-23T16:11:38;11.70;99.90
15013;DHT22;7603;49.432;11.418;2023-02-23T16:14:04;11.50;99.90
15013;DHT22;7603;49.432;11.418;2023-02-23T16:16:33;11.50;99.90
15013;DHT22;7603;49.432;11.418;2023-02-23T16:18:59;11.40;99.90
15013;DHT22;7603;49.432;11.418;2023-02-23T16:21:27;11.30;99.90
15013;DHT22;7603;49.432;11.418;2023-02-23T16:23:58;11.20;99.90
15013;DHT22;7603;49.432;11.418;2023-02-23T16:29:32;11.10;99.90
15013;DHT22;7603;49.432;11.418;2023-02-23T16:32:10;11.00;99.90
15013;DHT22;7603;49.432;11.418;2023-02-23T16:34:48;10.90;99.90
15013;DHT22;7603;49.432;11.418;2023-02-23T16:37:18;10.90;99.90
15013;DHT22;7603;49.432;11.418;2023-02-23T16:39:47;10.90;99.90
15013;DHT22;7603;49.432;11.418;2023-02-23T16:44:48;10.80;99.90
15013;DHT22;7603;49.432;11.418;2023-02-23T16:49:49;10.70;99.90
15013;DHT22;7603;49.432;11.418;2023-02-23T16:52:17;10.60;99.90
15013;DHT22;7603;49.432;11.418;2023-02-23T16:54:43;10.60;99.90
15013;DHT22;7603;49.432;11.418;2023-02-23T16:57:23;10.60;99.90
15013;DHT22;7603;49.432;11.418;2023-02-23T16:59:51;10.60;99.90
15013;DHT22;7603;49.432;11.418;2023-02-23T17:02:18;10.50;99.90
15013;DHT22;7603;49.432;11.418;2023-02-23T17:04:47;10.50;99.90
15013;DHT22;7603;49.432;11.418;2023-02-23T17:07:18;10.50;99.90
15013;DHT22;7603;49.432;11.418;2023-02-23T17:09:44;10.50;99.90
15013;DHT22;7603;49.432;11.418;2023-02-23T17:12:11;10.60;99.90
15013;DHT22;7603;49.432;11.418;2023-02-23T17:14:37;10.50;99.90
15013;DHT22;7603;49.432;11.418;2023-02-23T17:17:03;10.50;99.90
15013;DHT22;7603;49.432;11.418;2023-02-23T17:19:29;10.40;99.90
15013;DHT22;7603;49.432;11.418;2023-02-23T17:21:54;10.40;99.90
15013;DHT22;7603;49.432;11.418;2023-02-23T17:24:20;10.40;99.90
15013;DHT22;7603;49.432;11.418;2023-02-23T17:26:50;10.40;99.90
15013;DHT22;7603;49.432;11.418;2023-02-23T17:29:16;10.40;99.90
15013;DHT22;7603;49.432;11.418;2023-02-23T17:31:43;10.30;99.90
15013;DHT22;7603;49.432;11.418;2023-02-23T17:34:09;10.30;99.90
15013;DHT22;7603;49.432;11.418;2023-02-23T17:36:34;10.30;99.90
15013;DHT22;7603;49.432;11.418;2023-02-23T17:39:00;10.20;99.90
15013;DHT22;7603;49.432;11.418;2023-02-23T17:41:26;10.20;99.90
15013;DHT22;7603;49.432;11.418;2023-02-23T17:43:52;10.10;99.90
15013;DHT22;7603;49.432;11.418;2023-02-23T17:46:18;10.00;99.90
15013;DHT22;7603;49.432;11.418;2023-02-23T17:48:43;9.90;99.90
15013;DHT22;7603;49.432;11.418;2023-02-23T17:51:12;9.90;99.90